createdAt,value
2023-04-11T08:14:47.310Z,13.50
2023-04-11T08:17:50.059Z,14.20
2023-04-11T08:20:52.855Z,12.70
2023-04-11T08:23:55.447Z,11.15
2023-04-11T08:26:57.835Z,11.73
2023-04-11T08:30:00.316Z,11.00
2023-04-11T08:33:02.432Z,11.60
2023-04-11T08:36:09.680Z,11.95
2023-04-11T08:39:11.932Z,13.70
2023-04-11T08:42:23.227Z,15.45
2023-04-11T08:45:25.573Z,15.77
2023-04-11T08:48:28.331Z,14.85
2023-04-11T08:51:31.469Z,17.45
2023-04-11T08:54:33.858Z,15.05
2023-04-11T08:57:38.158Z,13.80
2023-04-11T09:00:40.648Z,13.68
2023-04-11T09:04:02.483Z,13.38
2023-04-11T09:07:05.704Z,15.65
2023-04-11T09:10:20.902Z,15.27
2023-04-11T09:13:24.347Z,15.43
2023-04-11T09:16:27.034Z,13.93
2023-04-11T09:19:31.791Z,14.07
2023-04-11T09:22:37.044Z,14.87
2023-04-11T09:25:45.572Z,14.93
2023-04-11T09:28:54.897Z,14.73
2023-04-11T09:31:57.406Z,15.10
2023-04-11T09:35:18.528Z,14.25
2023-04-11T09:38:28.038Z,14.85
2023-04-11T09:41:32.312Z,14.80
2023-04-11T09:44:37.437Z,15.10
2023-04-11T09:47:39.643Z,14.63
2023-04-11T09:50:43.076Z,15.32
2023-04-11T09:53:45.570Z,15.50
2023-04-11T09:56:48.995Z,15.30
2023-04-11T09:59:52.853Z,14.65
2023-04-11T10:02:56.335Z,15.48
2023-04-11T10:05:58.898Z,14.07
2023-04-11T10:09:12.253Z,15.18
2023-04-11T10:12:31.554Z,15.63
2023-04-11T10:15:33.694Z,14.63
2023-04-11T10:18:37.072Z,13.18
2023-04-11T10:21:40.895Z,13.90
2023-04-11T10:25:16.752Z,14.23
2023-04-11T10:32:05.756Z,14.95
2023-04-11T10:35:16.853Z,14.43
2023-04-11T10:38:48.250Z,16.05
2023-04-11T10:41:50.488Z,16.23
2023-04-11T10:45:14.508Z,16.05
2023-04-11T10:48:16.647Z,16.85
2023-04-11T10:51:30.123Z,17.42
2023-04-11T10:54:32.256Z,18.77
2023-04-11T10:58:03.518Z,18.05
2023-04-11T11:01:21.288Z,16.73
2023-04-11T11:04:36.594Z,18.80
2023-04-11T11:07:39.012Z,15.45
2023-04-11T11:10:43.503Z,16.23
2023-04-11T11:13:53.270Z,16.05
2023-04-11T11:16:55.896Z,16.73
2023-04-11T11:19:58.231Z,15.18
2023-04-11T11:23:02.707Z,19.17
2023-04-11T11:26:05.016Z,16.25
2023-04-11T11:29:08.334Z,15.70
2023-04-11T11:32:21.277Z,14.38
2023-04-11T11:35:24.727Z,13.98
2023-04-11T11:38:28.739Z,14.05
2023-04-11T11:41:33.518Z,13.70
2023-04-11T11:44:35.767Z,13.00
2023-04-11T11:47:56.633Z,13.90
2023-04-11T11:50:58.926Z,12.50
2023-04-11T11:54:11.248Z,12.18
2023-04-11T11:57:22.648Z,13.15
2023-04-11T12:00:27.081Z,11.90
2023-04-11T12:03:29.671Z,11.40
2023-04-11T12:06:32.386Z,12.00
2023-04-11T12:09:34.771Z,11.43
2023-04-11T12:12:41.909Z,12.95
2023-04-11T12:15:46.540Z,13.43
2023-04-11T12:18:48.656Z,14.50
2023-04-11T12:21:51.522Z,13.95
2023-04-11T12:25:06.385Z,13.45
2023-04-11T12:28:09.620Z,12.17
2023-04-11T12:31:12.474Z,11.23
2023-04-11T12:34:14.971Z,10.90
2023-04-11T12:37:17.138Z,10.70
2023-04-11T12:40:19.763Z,10.32
2023-04-11T12:43:21.935Z,11.93
2023-04-11T12:46:24.469Z,11.07
2023-04-11T12:49:28.189Z,12.13
2023-04-11T12:52:30.945Z,11.73
2023-04-11T12:55:34.883Z,14.02
2023-04-11T12:58:37.339Z,13.85
2023-04-11T13:01:39.517Z,13.00
2023-04-11T13:04:42.092Z,12.88
2023-04-11T13:07:45.421Z,11.75
2023-04-11T13:10:48.155Z,14.18
2023-04-11T13:13:51.596Z,12.70
2023-04-11T13:16:54.142Z,9.23
2023-04-11T13:19:56.264Z,9.57
2023-04-11T13:22:58.673Z,9.60
2023-04-11T13:26:01.079Z,9.75
2023-04-11T13:29:03.578Z,10.30
2023-04-11T13:32:06.606Z,9.85
2023-04-11T13:35:09.343Z,9.98
2023-04-11T13:38:12.537Z,9.75
2023-04-11T13:41:15.078Z,9.13
2023-04-11T13:44:17.695Z,9.07
2023-04-11T13:47:20.211Z,8.13
2023-04-11T13:50:22.368Z,8.30
2023-04-11T13:53:24.743Z,7.60
2023-04-11T13:56:27.193Z,8.70
2023-04-11T13:59:29.540Z,8.52
2023-04-11T14:02:31.737Z,8.15
2023-04-11T14:05:35.560Z,8.13
2023-04-11T14:08:37.723Z,8.38
2023-04-11T14:11:40.694Z,7.97
2023-04-11T14:14:42.775Z,8.18
2023-04-11T14:17:46.840Z,7.82
